Time;durP1;ratioP1;P1;durP2;ratioP2;P2;SDS_P1;SDS_P2;PMS_P1;PMS_P2;Temp;Humidity;BMP_temperature;BMP_pressure;BME280_temperature;BME280_humidity;BME280_pressure;Samples;Min_cycle;Max_cycle;Signal;HPM_P1;HPM_P2
2023/06/05 00:01:50;;;;;;;6.82;2.55;;;13.50;99.90;;;-144.05;61.79;56793.63;5076344;28;20398;-84
2023/06/05 00:04:16;;;;;;;4.40;2.20;;;13.50;99.90;;;-144.05;61.77;56783.00;5058679;28;20047;-85
2023/06/05 00:06:42;;;;;;;7.22;3.08;;;13.50;99.90;;;-144.05;61.94;56780.88;5058025;28;20039;-82
2023/06/05 00:09:08;;;;;;;5.15;2.70;;;13.50;99.90;;;-144.05;62.06;56795.75;5058117;28;20107;-85
2023/06/05 00:11:34;;;;;;;4.55;2.78;;;13.50;99.90;;;-144.05;62.09;56785.13;5057990;28;20035;-88
2023/06/05 00:14:00;;;;;;;9.07;2.92;;;13.50;99.90;;;-144.05;62.49;56776.63;5058595;28;20039;-87
2023/06/05 00:16:26;;;;;;;5.18;2.50;;;13.50;99.90;;;-144.05;61.89;56770.25;5058089;28;20082;-87
2023/06/05 00:18:53;;;;;;;3.95;2.72;;;13.40;99.90;;;-144.05;62.38;56776.63;5058551;28;20031;-86
2023/06/05 00:21:19;;;;;;;5.07;2.83;;;13.40;99.90;;;-144.05;62.28;56759.63;5075423;28;20539;-85
2023/06/05 00:23:45;;;;;;;6.60;2.80;;;13.40;99.90;;;-144.05;62.16;56753.25;5058146;28;20028;-86
2023/06/05 00:26:11;;;;;;;4.20;2.35;;;13.40;99.90;;;-144.05;62.46;56761.75;5057475;28;20085;-87
2023/06/05 00:28:38;;;;;;;10.25;3.20;;;13.30;99.90;;;-144.05;63.12;56776.63;5057938;28;20082;-86
2023/06/05 00:31:06;;;;;;;5.65;2.25;;;13.30;99.90;;;-144.05;62.87;56780.88;5057719;28;20029;-83
2023/06/05 00:33:32;;;;;;;5.13;2.60;;;13.20;99.90;;;-144.05;62.91;56785.13;5076593;28;20032;-85
2023/06/05 00:35:58;;;;;;;7.03;3.00;;;13.20;99.90;;;-144.05;62.99;56768.13;5057891;28;20036;-85
2023/06/05 00:38:24;;;;;;;13.38;3.97;;;13.10;99.90;;;-144.05;62.90;56787.25;5057925;28;20028;-84
2023/06/05 00:40:50;;;;;;;10.68;4.13;;;13.10;99.90;;;-144.05;63.33;56742.63;5058275;28;20024;-84
2023/06/05 00:43:16;;;;;;;10.18;4.53;;;13.10;99.90;;;-144.05;63.52;56763.88;5057600;28;20035;-86
2023/06/05 00:45:42;;;;;;;11.10;3.60;;;13.00;99.90;;;-144.05;63.58;56808.47;5058123;28;20028;-87
2023/06/05 00:48:10;;;;;;;11.18;3.90;;;12.90;99.90;;;-144.05;63.87;56776.63;5058557;28;20044;-86
2023/06/05 00:50:37;;;;;;;11.15;4.40;;;13.00;99.90;;;-144.05;64.12;56768.13;5058853;28;20028;-85
2023/06/05 00:53:07;;;;;;;11.95;4.25;;;12.90;99.90;;;-144.05;64.12;56768.13;5057678;28;20031;-87
2023/06/05 00:55:34;;;;;;;7.80;3.20;;;12.80;99.90;;;-144.05;63.65;56783.00;5058006;28;20060;-84
2023/06/05 00:58:03;;;;;;;8.18;3.35;;;12.80;99.90;;;-144.05;63.79;56783.00;5057854;28;20039;-86
2023/06/05 01:00:29;;;;;;;9.88;3.88;;;12.80;99.90;;;-144.05;63.85;56776.63;5057449;28;20044;-88
2023/06/05 01:02:56;;;;;;;8.15;3.60;;;12.70;99.90;;;-144.05;64.17;56793.63;5057460;28;20478;-87
2023/06/05 01:05:23;;;;;;;10.20;3.38;;;12.80;99.90;;;-144.05;64.26;56776.63;5057677;28;20435;-87
2023/06/05 01:07:50;;;;;;;6.50;2.83;;;12.70;99.90;;;-144.05;64.01;56789.38;5057154;28;20097;-86
2023/06/05 01:10:17;;;;;;;5.22;2.95;;;12.80;99.90;;;-144.05;64.21;56753.25;5057136;28;20039;-84
2023/06/05 01:13:22;;;;;;;5.55;2.90;;;12.70;99.90;;;-144.05;64.50;56789.38;5074509;28;20051;-86
2023/06/05 01:15:50;;;;;;;7.65;4.18;;;12.70;99.90;;;-144.05;64.85;56806.34;5058069;28;20066;-85
2023/06/05 01:18:18;;;;;;;5.32;2.70;;;12.60;99.90;;;-144.05;65.39;56778.75;5058790;28;20425;-88
2023/06/05 01:20:44;;;;;;;4.85;2.95;;;12.60;99.90;;;-144.05;65.01;56797.88;5057879;28;20519;-87
2023/06/05 01:23:10;;;;;;;6.53;3.03;;;12.50;99.90;;;-144.05;65.46;56753.25;5058529;28;20461;-88
2023/06/05 01:25:37;;;;;;;8.10;3.15;;;12.50;99.90;;;-144.05;66.30;56780.88;5058980;28;20115;-86
2023/06/05 01:28:26;;;;;;;10.07;3.60;;;12.50;99.90;;;-144.05;66.90;56793.63;5058831;28;20063;-87
2023/06/05 01:31:13;;;;;;;6.47;3.10;;;12.50;99.90;;;-144.05;66.39;56751.13;5075374;28;20029;-87
2023/06/05 01:33:57;;;;;;;5.75;2.80;;;12.40;99.90;;;-144.05;66.56;56789.38;5076425;28;20025;-85
2023/06/05 01:36:24;;;;;;;8.55;3.30;;;12.40;99.90;;;-144.05;66.88;56789.38;5076696;28;20033;-86
2023/06/05 01:38:53;;;;;;;8.13;3.22;;;12.40;99.90;;;-144.05;67.60;56780.88;5061573;28;20092;-86
2023/06/05 01:41:21;;;;;;;7.15;3.38;;;12.30;99.90;;;-144.05;67.49;56761.75;5068089;28;20028;-86
2023/06/05 01:43:50;;;;;;;10.55;3.72;;;12.20;99.90;;;-144.05;68.24;56780.88;5066865;28;20044;-88
2023/06/05 01:46:22;;;;;;;7.85;3.53;;;12.20;99.90;;;-144.05;67.90;56774.50;5062782;28;20039;-85
2023/06/05 01:48:51;;;;;;;5.85;3.28;;;12.10;99.90;;;-144.05;68.28;56791.50;5060653;28;20401;-85
2023/06/05 01:51:17;;;;;;;9.82;3.67;;;12.10;99.90;;;-144.05;68.60;56780.88;5060594;28;20021;-84
2023/06/05 01:53:43;;;;;;;8.35;3.85;;;12.00;99.90;;;-144.05;68.72;56755.38;5059802;28;20028;-87
2023/06/05 01:56:09;;;;;;;6.93;4.00;;;11.90;99.90;;;-144.05;68.94;56802.09;5062167;28;20036;-86
2023/06/05 01:58:35;;;;;;;5.93;3.30;;;11.90;99.90;;;-144.05;69.04;56783.00;5064456;28;20405;-87
2023/06/05 02:01:03;;;;;;;4.97;3.05;;;11.90;99.90;;;-144.05;69.03;56776.63;5064707;28;20110;-85
2023/06/05 02:03:29;;;;;;;6.68;3.03;;;11.80;99.90;;;-144.05;69.42;56768.13;5082735;28;20031;-85
2023/06/05 02:05:54;;;;;;;7.40;3.30;;;11.70;99.90;;;-144.05;69.98;56785.13;5064682;28;20032;-86
2023/06/05 02:08:22;;;;;;;8.20;3.80;;;11.60;99.90;;;-144.05;70.25;56797.88;5080886;28;20028;-87
2023/06/05 02:10:52;;;;;;;8.20;3.83;;;11.60;99.90;;;-144.05;70.53;56776.63;5062205;28;20074;-87
2023/06/05 02:13:19;;;;;;;7.68;4.43;;;11.60;99.90;;;-144.05;70.64;56789.38;5077148;28;20482;-84
2023/06/05 02:15:46;;;;;;;7.00;4.10;;;11.60;99.90;;;-144.05;70.79;56793.63;5059118;28;20020;-87
2023/06/05 02:18:13;;;;;;;6.57;3.55;;;11.60;99.90;;;-144.05;70.59;56795.75;5059564;28;20574;-85
2023/06/05 02:20:41;;;;;;;7.43;4.28;;;11.60;99.90;;;-144.05;70.52;56751.13;5075528;28;20021;-86
2023/06/05 02:23:08;;;;;;;12.38;4.30;;;11.60;99.90;;;-144.05;70.24;56795.75;5097529;28;20062;-86
2023/06/05 02:25:34;;;;;;;9.82;4.05;;;11.60;99.90;;;-144.05;70.36;56795.75;5081743;28;20126;-86
2023/06/05 02:28:00;;;;;;;7.35;4.07;;;11.50;99.90;;;-144.05;70.62;56768.13;5081449;28;20048;-85
2023/06/05 02:30:26;;;;;;;7.82;4.70;;;11.50;99.90;;;-144.05;70.81;56791.50;5099048;28;20024;-84
2023/06/05 02:33:00;;;;;;;8.82;4.35;;;11.40;99.90;;;-144.05;70.94;56759.63;5080471;28;20024;-80
2023/06/05 02:35:26;;;;;;;8.68;4.53;;;11.50;99.90;;;-144.05;70.93;56791.50;5070281;28;20032;-87
2023/06/05 02:37:52;;;;;;;9.15;4.30;;;11.40;99.90;;;-144.05;70.86;56776.63;5057527;28;20035;-86
2023/06/05 02:40:18;;;;;;;6.55;4.30;;;11.40;99.90;;;-144.05;70.62;56778.75;5058128;28;20147;-86
2023/06/05 02:42:44;;;;;;;10.48;4.68;;;11.40;99.90;;;-144.05;70.74;56785.13;5076567;28;20112;-86
2023/06/05 02:45:10;;;;;;;11.02;5.18;;;11.30;99.90;;;-144.05;71.23;56780.88;5057992;28;20028;-86
2023/06/05 02:47:36;;;;;;;9.60;4.88;;;11.40;99.90;;;-144.05;71.84;56776.63;5057708;28;20449;-84
2023/06/05 02:50:02;;;;;;;8.18;4.10;;;11.30;99.90;;;-144.05;71.13;56783.00;5058203;28;20082;-85
2023/06/05 02:52:28;;;;;;;8.68;4.50;;;11.30;99.90;;;-144.05;71.43;56797.88;5058974;28;20028;-85
2023/06/05 02:54:54;;;;;;;8.50;4.63;;;11.30;99.90;;;-144.05;71.09;56774.50;5058871;28;20058;-86
2023/06/05 02:57:21;;;;;;;8.52;3.97;;;11.20;99.90;;;-144.05;71.13;56757.50;5061248;28;20524;-85
2023/06/05 02:59:46;;;;;;;7.50;4.38;;;11.20;99.90;;;-144.05;71.68;56793.63;5061172;28;20055;-86
2023/06/05 03:02:12;;;;;;;8.93;4.82;;;11.10;99.90;;;-144.05;71.90;56793.63;5060190;28;20028;-85
2023/06/05 03:04:42;;;;;;;10.20;4.50;;;11.10;99.90;;;-144.05;71.95;56791.50;5061014;28;20025;-86
2023/06/05 03:07:09;;;;;;;14.57;5.15;;;11.10;99.90;;;-144.05;71.93;56783.00;5061339;28;20032;-86
2023/06/05 03:09:36;;;;;;;7.43;4.00;;;11.10;99.90;;;-144.05;71.95;56787.25;5061313;28;20150;-82
2023/06/05 03:12:02;;;;;;;8.48;4.68;;;11.00;99.90;;;-144.05;71.99;56778.75;5060172;28;20028;-85
2023/06/05 03:14:30;;;;;;;12.93;4.63;;;11.00;99.90;;;-144.05;72.30;56793.63;5061760;28;20024;-85
2023/06/05 03:16:58;;;;;;;9.55;5.03;;;11.00;99.90;;;-144.05;72.29;56787.25;5060616;28;20039;-86
2023/06/05 03:19:25;;;;;;;10.07;4.38;;;11.00;99.90;;;-144.05;72.11;56766.00;5060506;28;20409;-87
2023/06/05 03:21:51;;;;;;;10.82;4.95;;;11.00;99.90;;;-144.05;72.17;56791.50;5060883;28;20485;-84
2023/06/05 03:24:17;;;;;;;7.03;4.72;;;11.00;99.90;;;-144.05;72.43;56751.13;5060154;28;20029;-86
2023/06/05 03:26:44;;;;;;;7.88;5.03;;;11.00;99.90;;;-144.05;72.04;56783.00;5060167;28;20492;-86
2023/06/05 03:29:11;;;;;;;7.57;4.43;;;11.00;99.90;;;-144.05;71.72;56802.09;5077115;28;20033;-86
2023/06/05 03:31:37;;;;;;;9.10;5.32;;;11.00;99.90;;;-144.05;71.92;56772.38;5059164;28;20074;-86
2023/06/05 03:34:03;;;;;;;9.88;5.15;;;11.00;99.90;;;-144.05;71.82;56806.34;5058776;28;20425;-85
2023/06/05 03:36:33;;;;;;;7.55;4.70;;;11.00;99.90;;;-144.05;71.91;56772.38;5058536;28;20028;-85
2023/06/05 03:38:59;;;;;;;8.60;4.68;;;11.00;99.90;;;-144.05;71.82;56778.75;5077558;28;20397;-88
2023/06/05 03:41:26;;;;;;;11.57;4.68;;;11.00;99.90;;;-144.05;72.11;56776.63;5058813;28;20024;-88
2023/06/05 03:43:53;;;;;;;6.78;4.57;;;11.00;99.90;;;-144.05;71.60;56772.38;5059081;28;20051;-84
2023/06/05 03:46:19;;;;;;;9.30;4.95;;;11.00;99.90;;;-144.05;71.73;56772.38;5057822;28;20039;-84
2023/06/05 03:48:48;;;;;;;11.73;4.85;;;10.90;99.90;;;-144.05;71.43;56799.97;5058152;28;20076;-87
2023/06/05 03:51:19;;;;;;;9.00;4.53;;;10.90;99.90;;;-144.05;71.91;56789.38;5058633;28;20028;-86
2023/06/05 03:53:45;;;;;;;9.60;4.93;;;10.90;99.90;;;-144.05;71.85;56797.88;5058080;28;20054;-84
2023/06/05 03:56:15;;;;;;;8.93;4.80;;;10.90;99.90;;;-144.05;71.97;56799.97;5057892;28;20035;-84
2023/06/05 03:58:41;;;;;;;7.32;4.90;;;10.90;99.90;;;-144.05;71.97;56780.88;5057396;28;20028;-86
2023/06/05 04:01:07;;;;;;;8.13;4.93;;;10.90;99.90;;;-144.05;71.82;56785.13;5058021;28;20221;-87
2023/06/05 04:03:36;;;;;;;10.85;5.13;;;10.90;99.90;;;-144.05;72.12;56791.50;5074983;28;20028;-86
2023/06/05 04:06:04;;;;;;;7.45;5.07;;;10.90;99.90;;;-144.05;72.16;56799.97;5057562;28;20024;-86
2023/06/05 04:08:31;;;;;;;7.95;4.80;;;10.90;99.90;;;-144.05;72.12;56749.00;5058057;28;20031;-86
2023/06/05 04:10:56;;;;;;;11.85;5.28;;;10.90;99.90;;;-144.05;71.60;56806.34;5076248;28;20095;-86
2023/06/05 04:13:22;;;;;;;11.85;5.15;;;10.90;99.90;;;-144.05;71.43;56791.50;5057955;28;20110;-84
2023/06/05 04:15:49;;;;;;;7.10;4.90;;;11.00;99.90;;;-144.05;71.50;56780.88;5058977;28;20059;-85
2023/06/05 04:18:15;;;;;;;6.82;4.93;;;11.00;99.90;;;-144.05;71.43;56774.50;5056120;28;20166;-78
2023/06/05 04:20:41;;;;;;;9.57;4.55;;;10.90;99.90;;;-144.05;71.29;56793.63;5055520;28;20028;-76
2023/06/05 04:23:07;;;;;;;6.90;4.28;;;10.90;99.90;;;-144.05;71.12;56783.00;5055814;28;20186;-79
2023/06/05 04:25:33;;;;;;;7.70;4.63;;;11.00;99.90;;;-144.05;71.10;56795.75;5074344;28;20035;-80
2023/06/05 04:27:59;;;;;;;8.82;5.50;;;11.00;99.90;;;-144.05;71.12;56780.88;5056414;28;20099;-78
2023/06/05 04:30:25;;;;;;;10.18;5.22;;;11.00;99.90;;;-144.05;71.28;56789.38;5073210;28;20036;-79
2023/06/05 04:32:54;;;;;;;11.13;5.13;;;11.10;99.90;;;-144.05;70.76;56768.13;5074478;28;20119;-79
2023/06/05 04:35:21;;;;;;;10.07;5.55;;;11.10;99.90;;;-144.05;70.51;56812.72;5074743;28;20032;-79
2023/06/05 04:37:48;;;;;;;9.48;5.03;;;11.20;99.90;;;-144.05;70.18;56799.97;5056932;28;20024;-79
2023/06/05 04:40:19;;;;;;;13.02;5.95;;;11.20;99.90;;;-144.05;69.60;56757.50;5075260;28;20499;-82
2023/06/05 04:42:45;;;;;;;9.05;4.82;;;11.40;99.90;;;-144.05;69.38;56780.88;5076211;28;20039;-79
2023/06/05 04:45:11;;;;;;;11.60;5.63;;;11.40;99.90;;;-144.05;69.27;56793.63;5058150;28;20028;-81
2023/06/05 04:47:37;;;;;;;9.25;5.50;;;11.50;99.90;;;-144.05;68.47;56757.50;5075563;28;20032;-82
2023/06/05 04:50:06;;;;;;;9.77;6.28;;;11.50;99.90;;;-144.05;68.32;56783.00;5057588;28;20043;-80
2023/06/05 04:52:39;;;;;;;8.45;5.80;;;11.60;99.90;;;-144.05;67.96;56806.34;5074283;28;20512;-81
2023/06/05 04:55:06;;;;;;;9.55;5.38;;;11.70;99.90;;;-144.05;67.44;56806.34;5076035;28;20092;-81
2023/06/05 04:57:32;;;;;;;7.90;4.85;;;11.80;99.90;;;-144.05;66.97;56763.88;5075462;28;20028;-84
2023/06/05 04:59:58;;;;;;;7.80;5.03;;;11.90;99.90;;;-144.05;66.55;56783.00;5074961;28;20020;-82
2023/06/05 05:02:24;;;;;;;7.30;4.75;;;12.10;99.90;;;-144.05;65.80;56806.34;5074876;28;20093;-80
2023/06/05 05:04:51;;;;;;;9.85;5.50;;;12.20;99.90;;;-144.05;65.42;56768.13;5074144;28;20025;-81
2023/06/05 05:07:16;;;;;;;8.80;5.78;;;12.40;99.90;;;-144.05;64.23;56772.38;5074655;28;20111;-81
2023/06/05 05:09:46;;;;;;;13.10;5.60;;;12.50;99.90;;;-144.05;63.52;56783.00;5074412;28;20499;-78
2023/06/05 05:12:12;;;;;;;10.43;5.13;;;12.70;99.90;;;-144.05;62.96;56772.38;5056185;28;20028;-79
2023/06/05 05:14:40;;;;;;;10.50;5.93;;;12.70;99.90;;;-144.05;62.12;56763.88;5056649;28;20028;-77
2023/06/05 05:17:05;;;;;;;11.40;7.30;;;12.90;99.90;;;-144.05;61.05;56778.75;5074100;28;20036;-81
2023/06/05 05:19:31;;;;;;;12.75;7.55;;;13.00;99.90;;;-144.05;60.50;56791.50;5056822;28;20021;-80
2023/06/05 05:21:57;;;;;;;11.25;6.10;;;13.30;99.90;;;-144.05;59.43;56776.63;5057367;28;20025;-79
2023/06/05 05:24:24;;;;;;;9.52;6.38;;;13.50;99.90;;;-144.05;58.43;56780.88;5075491;28;20041;-81
2023/06/05 05:26:52;;;;;;;8.02;6.35;;;13.60;99.90;;;-144.05;58.17;56789.38;5058539;28;20021;-82
2023/06/05 05:29:18;;;;;;;8.82;6.65;;;13.60;99.90;;;-144.05;57.12;56783.00;5077446;28;20028;-81
2023/06/05 05:31:45;;;;;;;9.82;6.32;;;13.80;99.90;;;-144.05;56.72;56783.00;5080716;28;20020;-82
2023/06/05 05:34:10;;;;;;;9.70;6.65;;;14.00;99.90;;;-144.05;56.54;56776.63;5062115;28;20059;-80
2023/06/05 05:36:36;;;;;;;10.65;5.68;;;14.10;99.90;;;-144.05;56.02;56772.38;5060855;28;20029;-78
2023/06/05 05:39:04;;;;;;;10.20;5.72;;;14.20;99.90;;;-144.05;55.74;56774.50;5079197;28;20083;-81
2023/06/05 05:41:30;;;;;;;9.93;4.78;;;14.40;99.90;;;-144.05;54.44;56804.22;5061382;28;20024;-81
2023/06/05 05:43:56;;;;;;;9.00;4.90;;;14.70;99.90;;;-144.05;54.58;56787.25;5080005;28;20062;-81
2023/06/05 05:46:22;;;;;;;8.65;5.00;;;14.50;99.90;;;-144.05;55.29;56793.63;5079570;28;20437;-82
2023/06/05 05:48:48;;;;;;;6.22;4.05;;;14.30;99.90;;;-144.05;55.10;56759.63;5079230;28;20155;-82
2023/06/05 05:51:14;;;;;;;8.23;4.47;;;14.50;99.90;;;-144.05;54.20;56789.38;5078706;28;20399;-81
2023/06/05 05:53:39;;;;;;;7.28;4.68;;;14.80;99.90;;;-144.05;52.99;56776.63;5078846;28;20116;-77
2023/06/05 05:56:05;;;;;;;7.10;5.20;;;15.00;99.90;;;-144.05;51.86;56783.00;5077780;28;20028;-80
2023/06/05 05:58:32;;;;;;;7.22;4.50;;;15.30;99.90;;;-144.05;51.28;56785.13;5078799;28;20090;-78
2023/06/05 06:01:00;;;;;;;5.95;4.57;;;15.40;99.90;;;-144.05;51.20;56802.09;5060027;28;20059;-79
2023/06/05 06:03:29;;;;;;;6.15;4.45;;;15.40;99.90;;;-144.05;51.29;56785.13;5057984;28;20055;-80
2023/06/05 06:05:59;;;;;;;7.30;4.60;;;15.50;99.90;;;-144.05;51.09;56776.63;5058058;28;20115;-80
2023/06/05 06:08:26;;;;;;;8.88;5.40;;;15.60;99.90;;;-144.05;50.50;56802.09;5076410;28;20035;-79
2023/06/05 06:10:52;;;;;;;8.65;4.88;;;15.70;99.90;;;-144.05;50.33;56778.75;5076271;28;20029;-80
2023/06/05 06:13:18;;;;;;;8.68;4.53;;;15.90;99.90;;;-144.05;49.51;56791.50;5075885;28;20444;-79
2023/06/05 06:15:44;;;;;;;9.10;4.90;;;16.00;99.90;;;-144.05;49.30;56802.09;5076270;28;20028;-80
2023/06/05 06:18:10;;;;;;;7.53;4.78;;;16.10;99.90;;;-144.05;49.26;56785.13;5058268;28;20040;-82
2023/06/05 06:20:36;;;;;;;8.13;5.07;;;16.20;99.90;;;-144.05;49.09;56810.59;5058440;28;20027;-78
2023/06/05 06:23:05;;;;;;;6.28;4.55;;;16.50;99.90;;;-144.05;47.74;56799.97;5076071;28;20021;-78
2023/06/05 06:25:31;;;;;;;5.35;3.78;;;16.50;99.90;;;-144.05;47.40;56802.09;5075231;28;20084;-79
2023/06/05 06:28:01;;;;;;;8.18;4.50;;;16.80;99.90;;;-144.05;47.00;56793.63;5075039;28;20039;-79
2023/06/05 06:30:27;;;;;;;9.90;5.35;;;16.80;99.90;;;-144.05;46.74;56783.00;5075709;28;20032;-77
2023/06/05 06:33:00;;;;;;;10.88;5.15;;;17.10;99.90;;;-144.05;46.37;56814.84;5075347;28;20055;-81
2023/06/05 06:35:26;;;;;;;9.63;5.53;;;17.20;99.90;;;-144.05;46.29;56804.22;5057203;28;20033;-79
2023/06/05 06:37:56;;;;;;;7.85;5.43;;;17.20;99.90;;;-144.05;46.71;56793.63;5075603;28;20772;-79
2023/06/05 06:40:23;;;;;;;8.95;5.05;;;17.00;99.90;;;-144.05;46.42;56812.72;5056774;28;20070;-79
2023/06/05 06:42:50;;;;;;;8.52;5.07;;;17.10;99.90;;;-144.05;45.82;56783.00;5075364;28;20025;-80
2023/06/05 06:45:17;;;;;;;8.10;5.20;;;17.40;99.90;;;-144.05;45.54;56799.97;5075519;28;20024;-80
2023/06/05 06:47:43;;;;;;;8.85;5.10;;;17.50;99.90;;;-144.05;44.89;56780.88;5077663;28;20500;-82
2023/06/05 06:50:10;;;;;;;12.90;5.55;;;17.80;99.90;;;-144.05;44.74;56812.72;5077984;28;20032;-79
2023/06/05 06:52:36;;;;;;;8.75;5.93;;;18.10;99.90;;;-144.05;44.44;56808.47;5057221;28;20150;-80
2023/06/05 06:55:02;;;;;;;17.45;6.38;;;18.30;99.90;;;-144.05;43.72;56806.34;5057689;28;20032;-79
2023/06/05 06:57:28;;;;;;;8.98;5.55;;;18.40;99.90;;;-144.05;42.82;56791.50;5058010;28;20111;-80
2023/06/05 06:59:54;;;;;;;9.38;5.55;;;18.50;99.90;;;-144.05;43.43;56793.63;5077696;28;20101;-80
2023/06/05 07:02:25;;;;;;;6.00;4.45;;;18.90;99.90;;;-144.05;42.75;56816.97;5074975;28;20485;-79
2023/06/05 07:04:53;;;;;;;10.55;5.82;;;19.30;99.90;;;-144.05;41.91;56816.97;5074836;28;20089;-79
2023/06/05 07:07:21;;;;;;;12.07;6.38;;;19.40;99.90;;;-144.05;41.34;56816.97;5074973;28;20032;-81
2023/06/05 07:09:51;;;;;;;12.70;6.47;;;19.30;99.90;;;-144.05;40.79;56823.34;5058294;28;20078;-80
2023/06/05 07:12:20;;;;;;;13.27;6.72;;;19.40;99.90;;;-144.05;41.21;56814.84;5074911;28;20082;-79
2023/06/05 07:14:46;;;;;;;9.43;6.60;;;19.50;99.90;;;-144.05;40.75;56814.84;5075140;28;20482;-78
2023/06/05 07:17:12;;;;;;;11.18;6.65;;;19.50;99.90;;;-144.05;40.69;56829.72;5057508;28;20086;-80
2023/06/05 07:19:39;;;;;;;9.05;6.07;;;19.40;99.90;;;-144.05;41.02;56827.59;5074884;28;20044;-79
2023/06/05 07:22:06;;;;;;;12.30;6.97;;;19.70;99.90;;;-144.05;40.60;56829.72;5075224;28;20032;-82
2023/06/05 07:24:35;;;;;;;8.57;6.45;;;19.90;99.90;;;-144.05;39.93;56808.47;5056975;28;20024;-80
2023/06/05 07:27:03;;;;;;;11.98;7.10;;;19.90;99.90;;;-144.05;40.36;56806.34;5056342;28;20042;-81
2023/06/05 07:29:30;;;;;;;10.73;6.55;;;19.80;99.90;;;-144.05;39.96;56833.97;5056508;28;20033;-81
2023/06/05 07:31:58;;;;;;;7.38;5.60;;;20.10;99.90;;;-144.05;39.87;56831.84;5076208;28;20033;-81
2023/06/05 07:34:26;;;;;;;11.77;5.70;;;20.40;99.90;;;-144.05;39.03;56827.59;5078109;28;20029;-81
2023/06/05 07:36:53;;;;;;;11.18;7.20;;;20.50;99.90;;;-144.05;37.61;56848.84;5058532;28;20121;-81
2023/06/05 07:39:20;;;;;;;12.60;6.30;;;20.80;99.90;;;-144.05;38.31;56842.47;5075418;28;20032;-79
2023/06/05 07:41:46;;;;;;;11.65;5.65;;;20.90;99.90;;;-144.05;38.36;56825.47;5074712;28;20504;-80
2023/06/05 07:44:19;;;;;;;7.88;5.32;;;20.60;99.90;;;-144.05;39.01;56829.72;5074863;28;20032;-78
2023/06/05 07:46:48;;;;;;;9.20;5.20;;;20.70;99.90;;;-144.05;37.66;56863.69;5074596;28;20500;-81
2023/06/05 07:49:17;;;;;;;6.13;4.53;;;20.90;99.90;;;-144.05;38.56;56827.59;5074493;28;20032;-81
2023/06/05 07:51:47;;;;;;;9.02;4.82;;;20.90;99.90;;;-144.05;37.21;56846.72;5073794;28;20037;-81
2023/06/05 07:54:15;;;;;;;8.63;4.68;;;21.10;99.90;;;-144.05;37.25;56859.47;5074430;28;20100;-81
2023/06/05 07:56:42;;;;;;;10.98;5.30;;;21.00;99.90;;;-144.05;37.82;56870.06;5075344;28;20425;-80
2023/06/05 07:59:09;;;;;;;7.78;4.63;;;20.90;99.90;;;-144.05;37.90;56857.34;5075631;28;20016;-81
2023/06/05 08:01:36;;;;;;;9.52;4.53;;;21.20;99.90;;;-144.05;37.55;56846.72;5056996;28;20025;-80
2023/06/05 08:04:10;;;;;;;7.72;4.15;;;21.30;99.90;;;-144.05;36.89;56857.34;5075720;28;20105;-81
2023/06/05 08:06:39;;;;;;;8.85;4.38;;;21.60;99.90;;;-144.05;36.30;56859.47;5078217;28;20039;-79
2023/06/05 08:09:09;;;;;;;7.88;3.55;;;21.60;99.90;;;-144.05;36.33;56861.56;5080034;28;20032;-80
2023/06/05 08:11:39;;;;;;;9.02;4.53;;;21.50;99.90;;;-144.05;36.17;56874.31;5082106;28;20033;-81
2023/06/05 08:14:08;;;;;;;8.98;4.30;;;21.50;99.90;;;-144.05;37.05;56870.06;5081558;28;20052;-81
2023/06/05 08:16:36;;;;;;;6.53;4.03;;;21.60;99.90;;;-144.05;35.78;56853.09;5081056;28;20105;-80
2023/06/05 08:19:03;;;;;;;6.55;4.13;;;21.80;99.50;;;-144.05;35.08;56876.44;5081819;28;20032;-79
2023/06/05 08:21:30;;;;;;;10.52;4.22;;;22.20;98.10;;;-144.05;35.23;56863.69;5080908;28;20265;-80
2023/06/05 08:23:55;;;;;;;6.97;3.95;;;22.40;98.50;;;-144.05;35.75;56889.19;5078621;28;20030;-79
2023/06/05 08:26:22;;;;;;;10.43;4.40;;;22.80;99.40;;;-144.05;34.98;56904.06;5062205;28;20037;-78
2023/06/05 08:28:49;;;;;;;8.75;4.20;;;23.00;98.10;;;-144.05;34.92;56904.06;5062584;28;20127;-81
2023/06/05 08:31:15;;;;;;;6.82;3.80;;;23.20;96.80;;;-144.05;33.79;56884.94;5062599;28;20032;-81
2023/06/05 08:33:43;;;;;;;9.55;3.78;;;23.40;95.20;;;-144.05;34.93;56910.44;5061576;28;20532;-80
2023/06/05 08:36:09;;;;;;;8.48;4.03;;;23.50;97.00;;;-144.05;34.34;56916.81;5081579;28;20036;-79
2023/06/05 08:38:35;;;;;;;7.03;4.03;;;23.60;96.00;;;-144.05;33.88;56912.56;5080062;28;20028;-80
2023/06/05 08:41:13;;;;;;;7.90;4.07;;;23.60;94.90;;;-144.05;34.04;56908.31;5078686;28;20082;-81
2023/06/05 08:43:44;;;;;;;8.73;4.05;;;23.00;95.00;;;-144.05;34.40;56891.31;5059482;28;20473;-79
2023/06/05 08:46:13;;;;;;;8.50;4.05;;;23.40;95.40;;;-144.05;33.35;56901.94;5076906;28;20036;-80
2023/06/05 08:48:50;;;;;;;8.20;4.10;;;23.60;93.50;;;-144.05;33.02;56923.19;5058641;28;20063;-80
2023/06/05 08:51:19;;;;;;;4.88;3.50;;;23.80;92.90;;;-144.05;33.22;56910.44;5075571;28;20101;-78
2023/06/05 08:54:02;;;;;;;7.45;3.83;;;23.80;92.90;;;-144.05;33.19;56912.56;5077376;28;20107;-80
2023/06/05 08:56:29;;;;;;;9.23;3.83;;;24.00;92.40;;;-144.05;32.90;56946.53;5080140;28;20482;-80
2023/06/05 08:58:56;;;;;;;7.75;4.35;;;24.40;92.10;;;-144.05;32.32;56933.78;5078455;28;20025;-79
2023/06/05 09:01:22;;;;;;;8.68;4.28;;;24.10;90.60;;;-144.05;33.19;56940.16;5077480;28;20032;-79
2023/06/05 09:03:47;;;;;;;6.03;3.55;;;24.00;91.40;;;-144.05;32.95;56927.41;5077509;28;20020;-83
2023/06/05 09:06:13;;;;;;;8.00;3.97;;;24.10;91.00;;;-144.05;32.70;56940.16;5077459;28;20028;-81
2023/06/05 09:08:40;;;;;;;6.10;3.38;;;24.10;90.70;;;-144.05;32.21;56927.41;5082213;28;20070;-80
2023/06/05 09:11:30;;;;;;;4.97;3.33;;;24.10;89.00;;;-144.05;32.63;56942.28;5085466;28;20028;-81
2023/06/05 09:14:00;;;;;;;6.38;3.45;;;24.20;90.20;;;-144.05;32.35;56931.66;5084326;28;20036;-80
2023/06/05 09:16:38;;;;;;;5.25;3.67;;;24.20;90.10;;;-144.05;31.43;56916.81;5063887;28;20036;-82
2023/06/05 09:19:05;;;;;;;7.75;3.22;;;24.00;85.20;;;-144.05;31.48;56959.28;5081545;28;20020;-81
2023/06/05 09:21:32;;;;;;;7.38;3.95;;;24.30;85.60;;;-144.05;31.30;56967.78;5090665;28;20393;-81
2023/06/05 09:24:20;;;;;;;6.57;3.47;;;24.60;84.50;;;-144.05;30.66;56946.53;5082843;28;20086;-82
2023/06/05 09:27:06;;;;;;;8.93;3.15;;;24.80;81.80;;;-144.05;31.18;56946.53;5082157;28;20453;-80
2023/06/05 09:29:39;;;;;;;7.22;2.72;;;24.90;82.90;;;-144.05;31.22;56959.28;5083132;28;20059;-83
2023/06/05 09:32:20;;;;;;;7.40;3.50;;;25.10;83.50;;;-144.05;31.16;56938.03;5081906;28;20035;-81
2023/06/05 09:34:59;;;;;;;7.20;3.75;;;24.70;83.00;;;-144.05;30.92;56940.16;5063503;28;20033;-83
2023/06/05 09:37:36;;;;;;;8.02;3.17;;;24.20;80.40;;;-144.05;31.18;56948.66;5061815;28;20063;-79
2023/06/05 09:40:04;;;;;;;4.68;2.97;;;24.30;80.80;;;-144.05;31.56;56931.66;5080857;28;20036;-80
2023/06/05 09:42:35;;;;;;;7.15;3.35;;;24.60;82.30;;;-144.05;30.82;56946.53;5063542;28;20520;-81
2023/06/05 09:45:04;;;;;;;5.70;2.90;;;25.00;79.80;;;-144.05;30.29;56974.16;5063075;28;20036;-83
2023/06/05 09:47:30;;;;;;;5.85;3.38;;;25.30;78.70;;;-144.05;29.54;56976.28;5079496;28;20025;-82
2023/06/05 09:49:55;;;;;;;8.23;3.20;;;25.50;76.20;;;-144.05;30.19;56955.03;5079245;28;20444;-82
2023/06/05 09:52:21;;;;;;;7.70;3.10;;;25.40;76.40;;;-144.05;29.75;56984.78;5078939;28;20032;-81
2023/06/05 09:54:47;;;;;;;7.05;2.85;;;25.40;75.70;;;-144.05;29.50;56976.28;5077389;28;20029;-80
2023/06/05 09:57:15;;;;;;;5.00;2.63;;;25.60;74.40;;;-144.05;29.64;56993.25;5079285;28;20036;-79
2023/06/05 09:59:54;;;;;;;8.60;2.95;;;25.70;75.40;;;-144.05;29.27;56982.66;5079830;28;20025;-80
2023/06/05 10:02:32;;;;;;;6.18;2.92;;;25.80;73.20;;;-144.05;29.43;56961.41;5078544;28;20071;-80
2023/06/05 10:05:04;;;;;;;5.97;3.00;;;25.60;72.40;;;-144.05;29.48;56965.66;5077959;28;20020;-81
2023/06/05 10:07:38;;;;;;;9.20;3.38;;;25.70;74.10;;;-144.05;29.20;56984.78;5078257;28;20036;-80
2023/06/05 10:10:09;;;;;;;3.65;2.72;;;25.60;70.60;;;-144.05;29.81;56963.53;5076826;28;20059;-78